Time;durP1;ratioP1;P1;durP2;ratioP2;P2;SDS_P1;SDS_P2;PMS_P1;PMS_P2;Temp;Humidity;BMP_temperature;BMP_pressure;BME280_temperature;BME280_humidity;BME280_pressure;Samples;Min_cycle;Max_cycle;Signal;HPM_P1;HPM_P2
2022/04/21 00:02:44;;;;;;;7.97;5.97;;;;;;;6.71;71.33;101183.59;10433796;28;20122;-77
2022/04/21 00:07:47;;;;;;;7.55;4.43;;;;;;;6.74;71.85;101182.91;10444256;28;20044;-77
2022/04/21 00:12:47;;;;;;;8.95;5.05;;;;;;;6.65;71.73;101182.28;10438613;28;20094;-77
2022/04/21 00:17:48;;;;;;;6.75;4.88;;;;;;;6.55;72.89;101178.13;10423519;28;20033;-77
2022/04/21 00:28:07;;;;;;;7.25;5.13;;;;;;;6.30;73.65;101174.75;10417500;28;20033;-77
2022/04/21 00:33:08;;;;;;;8.60;5.35;;;;;;;6.19;74.51;101173.09;10422805;28;20122;-77
2022/04/21 00:38:08;;;;;;;10.55;5.55;;;;;;;6.02;74.48;101172.81;10456754;28;20056;-77
2022/04/21 00:43:09;;;;;;;9.48;5.75;;;;;;;5.95;75.90;101159.22;10421741;28;20061;-77
2022/04/21 00:48:10;;;;;;;12.02;5.97;;;;;;;5.92;76.71;101159.00;10454988;28;20123;-77
2022/04/21 00:53:10;;;;;;;9.48;6.25;;;;;;;5.77;77.25;101151.94;10408658;28;20475;-76
2022/04/21 00:58:11;;;;;;;8.13;5.60;;;;;;;5.81;76.75;101148.75;10405553;28;20444;-77
2022/04/21 01:03:14;;;;;;;8.05;5.20;;;;;;;5.75;76.87;101150.03;10389819;28;20037;-77
2022/04/21 01:08:14;;;;;;;7.70;5.93;;;;;;;5.89;76.06;101157.09;10438311;28;20121;-77
2022/04/21 01:13:15;;;;;;;8.25;5.47;;;;;;;5.87;76.45;101158.69;10453960;28;20037;-77
2022/04/21 01:18:28;;;;;;;8.38;5.40;;;;;;;5.74;76.47;101149.09;10421164;28;20374;-77
2022/04/21 01:23:28;;;;;;;11.93;6.35;;;;;;;5.70;76.39;101153.19;10436505;28;20037;-76
2022/04/21 01:28:30;;;;;;;7.82;5.70;;;;;;;5.53;76.67;101153.69;10412083;28;20040;-78
2022/04/21 01:33:30;;;;;;;8.77;6.25;;;;;;;5.42;76.72;101146.00;10419690;28;20036;-77
2022/04/21 01:43:50;;;;;;;12.10;5.68;;;;;;;5.16;77.73;101151.88;10453318;28;20033;-77
2022/04/21 01:48:50;;;;;;;10.15;7.25;;;;;;;5.08;78.15;101152.97;10433558;28;21612;-77
2022/04/21 01:53:51;;;;;;;10.98;7.57;;;;;;;4.97;78.41;101147.91;10385725;28;20041;-77
2022/04/21 01:58:51;;;;;;;11.95;7.25;;;;;;;4.84;79.15;101145.16;10455366;28;20262;-76
2022/04/21 02:03:54;;;;;;;12.95;8.65;;;;;;;4.77;79.52;101138.63;10443013;28;20053;-77
2022/04/21 02:08:55;;;;;;;11.27;8.77;;;;;;;4.75;79.91;101139.28;10445037;28;20492;-77
2022/04/21 02:13:56;;;;;;;10.13;8.07;;;;;;;4.57;80.31;101144.00;10442676;28;20125;-77
2022/04/21 02:18:56;;;;;;;11.55;8.30;;;;;;;4.40;80.01;101147.09;10443842;28;20513;-77
2022/04/21 02:23:57;;;;;;;10.65;7.43;;;;;;;4.25;80.54;101146.81;10460680;28;20064;-77
2022/04/21 02:28:57;;;;;;;11.52;7.63;;;;;;;4.30;81.32;101144.56;10460042;28;20094;-77
2022/04/21 02:33:57;;;;;;;11.43;9.60;;;;;;;4.21;81.84;101134.41;10442611;28;20033;-77
2022/04/21 02:38:58;;;;;;;13.27;9.52;;;;;;;4.24;81.79;101138.91;10439660;28;20131;-77
2022/04/21 02:43:59;;;;;;;12.52;8.02;;;;;;;4.22;81.98;101141.41;10449703;28;20063;-77
2022/04/21 02:49:00;;;;;;;14.43;8.52;;;;;;;4.22;82.04;101138.81;10460418;28;20025;-77
2022/04/21 02:59:20;;;;;;;14.20;9.05;;;;;;;4.34;84.66;101136.25;10430374;28;20060;-77
2022/04/21 03:04:21;;;;;;;13.18;8.65;;;;;;;4.29;84.37;101131.53;10448205;28;20556;-77
2022/04/21 03:09:21;;;;;;;15.05;8.23;;;;;;;4.06;83.63;101135.81;10434839;28;20045;-77
2022/04/21 03:14:22;;;;;;;11.13;8.45;;;;;;;3.97;84.74;101134.31;10458097;28;20122;-77
2022/04/21 03:19:22;;;;;;;13.55;10.15;;;;;;;3.79;85.04;101133.75;10441827;28;20135;-77
2022/04/21 03:24:23;;;;;;;14.07;9.90;;;;;;;3.57;85.27;101138.91;10419556;28;20029;-77
2022/04/21 03:29:23;;;;;;;13.90;9.15;;;;;;;3.40;85.64;101140.13;10412803;28;20025;-77
2022/04/21 03:34:24;;;;;;;14.80;10.82;;;;;;;3.42;85.91;101142.88;10458018;28;20052;-77
2022/04/21 03:39:24;;;;;;;16.23;10.43;;;;;;;3.43;86.24;101145.56;10457363;28;20075;-77
2022/04/21 03:44:25;;;;;;;15.20;9.63;;;;;;;3.26;86.21;101141.63;10440376;28;20029;-77
2022/04/21 03:49:29;;;;;;;12.00;9.95;;;;;;;3.15;86.25;101145.00;10456264;28;20446;-77
2022/04/21 03:54:30;;;;;;;15.05;11.18;;;;;;;3.07;86.28;101149.53;10423934;28;20029;-77
2022/04/21 03:59:30;;;;;;;14.57;9.88;;;;;;;3.07;86.92;101157.28;10436880;28;20841;-77
2022/04/21 04:04:34;;;;;;;13.05;10.20;;;;;;;3.00;87.44;101147.22;10453423;28;20037;-77
2022/04/21 04:14:54;;;;;;;14.77;11.57;;;;;;;3.13;87.27;101160.38;10455743;28;20469;-76
2022/04/21 04:19:54;;;;;;;16.25;12.07;;;;;;;3.06;86.91;101159.00;10456205;28;20083;-77
2022/04/21 04:24:56;;;;;;;16.13;12.00;;;;;;;3.13;86.72;101164.66;10434441;28;20028;-77
2022/04/21 04:29:56;;;;;;;16.00;11.25;;;;;;;3.01;86.68;101162.88;10426854;28;20037;-75
2022/04/21 04:34:57;;;;;;;15.82;12.18;;;;;;;2.98;87.32;101167.81;10437589;28;20080;-75
2022/04/21 04:39:59;;;;;;;15.23;13.45;;;;;;;3.01;87.29;101168.06;10449208;28;20114;-76
2022/04/21 04:50:19;;;;;;;17.77;11.38;;;;;;;3.02;87.78;101174.13;10432962;28;20029;-77
2022/04/21 04:55:20;;;;;;;14.57;12.20;;;;;;;3.10;87.27;101169.59;10450286;28;20064;-76
2022/04/21 05:00:24;;;;;;;16.15;11.80;;;;;;;3.15;87.52;101169.19;10453379;28;20556;-77
2022/04/21 05:05:28;;;;;;;14.32;11.23;;;;;;;3.21;87.51;101159.34;10466119;28;20076;-77
2022/04/21 05:10:28;;;;;;;16.90;11.85;;;;;;;3.30;87.15;101159.19;10495877;28;20064;-76
2022/04/21 05:15:29;;;;;;;17.67;12.48;;;;;;;3.41;87.54;101165.22;10493879;28;20119;-75
2022/04/21 05:20:30;;;;;;;15.93;12.50;;;;;;;3.57;87.32;101164.81;10492687;28;20059;-75
2022/04/21 05:25:33;;;;;;;16.92;13.40;;;;;;;3.75;87.75;101151.53;10492695;28;20044;-75
2022/04/21 05:35:56;;;;;;;20.20;9.93;;;;;;;4.25;86.12;101154.59;10493825;28;19920;-76
2022/04/21 05:40:56;;;;;;;13.10;10.13;;;;;;;4.80;84.87;101151.84;10493451;28;20063;-75
2022/04/21 05:45:58;;;;;;;13.50;9.80;;;;;;;5.51;83.51;101148.34;10487577;28;20035;-77
2022/04/21 05:50:59;;;;;;;12.02;7.70;;;;;;;6.60;79.17;101141.25;10489695;28;20115;-77
2022/04/21 05:56:00;;;;;;;16.45;8.00;;;;;;;8.51;74.35;101132.53;10491313;28;20186;-77
2022/04/21 06:01:00;;;;;;;14.85;7.35;;;;;;;11.06;63.28;101120.25;10472386;28;20060;-76
2022/04/21 06:06:01;;;;;;;14.98;7.00;;;;;;;13.27;54.50;101114.38;10458418;28;20060;-75
2022/04/21 06:11:03;;;;;;;26.85;9.32;;;;;;;15.00;48.62;101111.09;10451372;28;20041;-75
2022/04/21 06:16:03;;;;;;;39.67;21.73;;;;;;;15.94;43.76;101114.09;10431103;28;20076;-77
2022/04/21 06:21:05;;;;;;;8.98;5.60;;;;;;;16.55;44.50;101115.78;10431892;28;20127;-76
2022/04/21 06:26:05;;;;;;;10.82;6.30;;;;;;;17.36;42.20;101117.81;10411918;28;20123;-77
2022/04/21 06:31:06;;;;;;;13.25;5.38;;;;;;;17.90;38.14;101112.00;10434193;28;20115;-76
2022/04/21 06:36:07;;;;;;;11.63;5.93;;;;;;;18.11;39.13;101099.22;10451013;28;20068;-75
2022/04/21 06:41:08;;;;;;;10.95;5.13;;;;;;;18.68;37.58;101091.47;10415489;28;20041;-76
2022/04/21 06:51:27;;;;;;;8.65;4.63;;;;;;;19.70;36.33;101086.84;10443263;28;20033;-77
2022/04/21 06:56:28;;;;;;;12.63;5.23;;;;;;;19.90;34.37;101089.81;10435342;28;20494;-76
2022/04/21 07:01:28;;;;;;;7.53;4.57;;;;;;;20.64;34.40;101084.41;10402566;28;20083;-76
2022/04/21 07:06:29;;;;;;;11.27;5.07;;;;;;;21.29;32.96;101092.97;10440367;28;20037;-76
2022/04/21 07:11:30;;;;;;;11.47;4.53;;;;;;;21.58;32.27;101088.72;10447099;28;20037;-76
2022/04/21 07:16:31;;;;;;;8.80;4.95;;;;;;;21.32;31.59;101092.97;10440949;28;20036;-76
2022/04/21 07:21:32;;;;;;;9.27;5.00;;;;;;;21.38;30.60;101105.44;10436183;28;20051;-76
2022/04/21 07:26:32;;;;;;;6.20;4.00;;;;;;;21.20;31.60;101111.53;10438280;28;20038;-79
2022/04/21 07:31:33;;;;;;;11.40;6.93;;;;;;;21.61;30.49;101121.56;10438793;28;20055;-78
2022/04/21 07:36:34;;;;;;;9.00;4.97;;;;;;;22.29;30.20;101119.22;10428258;28;20052;-78
2022/04/21 07:41:35;;;;;;;11.88;5.07;;;;;;;22.27;30.50;101110.34;10455910;28;20102;-78
2022/04/21 07:46:36;;;;;;;12.67;4.80;;;;;;;22.11;28.30;101105.84;10459249;28;20186;-77
2022/04/21 07:51:36;;;;;;;5.80;4.40;;;;;;;22.21;28.75;101106.78;10422769;28;20028;-78
2022/04/21 07:56:37;;;;;;;8.03;5.10;;;;;;;22.16;31.42;101106.75;10438536;28;20314;-78
2022/04/21 08:01:40;;;;;;;8.63;5.07;;;;;;;22.39;29.27;101104.16;10423597;28;20488;-77
2022/04/21 08:06:41;;;;;;;9.68;5.90;;;;;;;22.70;29.79;101098.91;10460033;28;20049;-78
2022/04/21 08:11:42;;;;;;;7.28;4.13;;;;;;;23.10;29.77;101100.69;10458050;28;20047;-78
2022/04/21 08:16:43;;;;;;;10.30;5.27;;;;;;;23.28;29.39;101089.16;10457441;28;20060;-78
2022/04/21 08:21:44;;;;;;;10.15;4.35;;;;;;;23.18;29.67;101096.22;10439550;28;20037;-78
2022/04/21 08:37:23;;;;;;;11.73;5.03;;;;;;;24.14;27.03;101097.81;10447211;28;20029;-77
2022/04/21 08:42:23;;;;;;;8.17;4.90;;;;;;;24.06;29.46;101094.28;10411881;28;20455;-76
2022/04/21 08:47:27;;;;;;;6.67;4.23;;;;;;;24.93;26.37;101096.41;10395288;28;20051;-77
2022/04/21 08:52:28;;;;;;;6.43;4.57;;;;;;;24.96;27.69;101092.81;10397331;28;20041;-77
2022/04/21 08:57:29;;;;;;;8.30;4.33;;;;;;;25.25;26.03;101086.31;10400984;28;20109;-78
2022/04/21 09:02:41;;;;;;;6.30;3.88;;;;;;;24.12;26.63;101080.88;10424829;28;20426;-78
2022/04/21 09:07:42;;;;;;;;;;;;;;;24.80;26.50;101074.22;10420814;28;20065;-78
2022/04/21 09:12:55;;;;;;;11.93;5.35;;;;;;;24.71;28.58;101084.94;10408621;28;19960;-77
2022/04/21 09:18:08;;;;;;;12.10;5.30;;;;;;;24.63;26.30;101072.53;10413993;28;20045;-79
2022/04/21 09:23:10;;;;;;;10.35;6.07;;;;;;;23.91;28.57;101068.47;10406683;28;20086;-77
2022/04/21 09:28:24;;;;;;;7.05;4.95;;;;;;;24.74;28.39;101067.13;10418225;28;20024;-82
2022/04/21 09:33:29;;;;;;;32.28;4.90;;;;;;;25.41;27.12;101057.56;10419734;28;20392;-77
2022/04/21 09:38:30;;;;;;;6.95;4.10;;;;;;;25.35;26.75;101056.75;10412899;28;20033;-79
2022/04/21 09:43:31;;;;;;;6.33;4.73;;;;;;;24.93;27.27;101050.91;10407297;28;20036;-78
2022/04/21 09:48:31;;;;;;;7.50;4.73;;;;;;;23.95;28.56;101050.66;10434807;28;20068;-78
2022/04/21 09:53:33;;;;;;;7.20;4.73;;;;;;;23.98;25.98;101034.59;10454310;28;20496;-78
2022/04/21 09:58:38;;;;;;;8.13;3.53;;;;;;;23.82;27.60;101031.09;10417067;28;20048;-79
2022/04/21 10:03:43;;;;;;;5.07;4.15;;;;;;;24.11;28.57;101027.41;10405938;28;20104;-79
2022/04/21 10:08:44;;;;;;;5.25;3.30;;;;;;;23.25;25.79;101032.19;10414355;28;20128;-79
2022/04/21 10:13:44;;;;;;;6.60;3.97;;;;;;;23.33;26.51;101024.16;10446223;28;20029;-78
2022/04/21 10:18:51;;;;;;;5.87;3.07;;;;;;;24.87;24.90;101018.84;10434306;28;20037;-80
2022/04/21 10:23:52;;;;;;;5.82;3.08;;;;;;;26.29;25.92;101005.53;10410345;28;20488;-79
2022/04/21 10:28:55;;;;;;;8.63;2.83;;;;;;;26.53;21.98;101003.34;10427790;28;20025;-78
2022/04/21 10:33:59;;;;;;;5.10;2.78;;;;;;;25.94;23.51;100993.50;10441254;28;20043;-81
2022/04/21 10:39:12;;;;;;;5.82;3.75;;;;;;;26.12;21.94;100996.81;10441372;28;20029;-77
2022/04/21 10:44:14;;;;;;;6.10;2.95;;;;;;;25.88;21.62;100993.59;10454616;28;20132;-81
2022/04/21 10:49:37;;;;;;;4.18;2.25;;;;;;;25.65;23.31;100990.34;10455988;28;20159;-79
2022/04/21 11:00:05;;;;;;;4.85;2.33;;;;;;;23.96;25.39;100986.47;10458222;28;20037;-78
2022/04/21 11:05:39;;;;;;;5.20;2.58;;;;;;;24.85;22.76;100983.19;10459509;28;20052;-79
2022/04/21 11:10:44;;;;;;;8.25;3.55;;;;;;;23.63;23.79;100967.06;10444336;28;20131;-82
2022/04/21 11:15:44;;;;;;;5.75;3.42;;;;;;;21.22;26.36;100961.63;10458919;28;20025;-81
2022/04/21 11:20:49;;;;;;;4.30;3.00;;;;;;;22.02;28.06;100951.25;10451790;28;20493;-81
2022/04/21 11:26:02;;;;;;;4.63;2.92;;;;;;;23.26;27.13;100948.53;10442164;28;20029;-81
2022/04/21 11:31:03;;;;;;;7.95;2.50;;;;;;;24.42;25.02;100942.50;10442141;28;20503;-81
2022/04/21 11:36:10;;;;;;;14.90;4.95;;;;;;;24.26;24.31;100940.88;10424609;28;20037;-82
2022/04/21 11:41:12;;;;;;;5.22;2.72;;;;;;;24.55;24.26;100943.28;10440831;28;20029;-82
2022/04/21 11:46:13;;;;;;;;;;;;;;;25.07;24.77;100919.56;10441130;28;20094;-81
2022/04/21 11:51:24;;;;;;;4.80;3.08;;;;;;;25.51;22.28;100918.16;10457426;28;20432;-82
2022/04/21 11:56:27;;;;;;;6.80;3.50;;;;;;;24.72;24.83;100915.47;10424606;28;20441;-82
2022/04/21 12:06:55;;;;;;;5.35;3.38;;;;;;;24.69;24.77;100912.81;10458180;28;20049;-82
2022/04/21 12:11:57;;;;;;;5.18;3.03;;;;;;;23.02;27.08;100899.63;10423606;28;20377;-83
2022/04/21 12:16:58;;;;;;;;;;;;;;;21.09;30.86;100911.91;10423177;28;20033;-81
2022/04/21 12:22:08;;;;;;;7.28;2.50;;;;;;;19.41;31.00;100907.78;10438840;28;19913;-81
2022/04/21 12:27:12;;;;;;;5.35;2.95;;;;;;;18.36;32.31;100915.13;10456207;28;20489;-81
2022/04/21 12:32:16;;;;;;;6.95;3.30;;;;;;;17.87;33.31;100917.78;10438293;28;20036;-82
2022/04/21 12:37:29;;;;;;;5.72;3.38;;;;;;;17.96;34.31;100907.38;10421290;28;20497;-81
2022/04/21 12:42:31;;;;;;;6.75;3.38;;;;;;;18.08;35.34;100912.00;10437726;28;20503;-81
2022/04/21 12:47:31;;;;;;;13.30;4.15;;;;;;;17.78;33.68;100909.69;10421583;28;20120;-81
2022/04/21 12:52:59;;;;;;;6.10;3.55;;;;;;;17.39;35.34;100898.34;10420591;28;20140;-81
2022/04/21 12:58:06;;;;;;;7.43;4.40;;;;;;;17.42;34.24;100898.38;10454478;28;20043;-81
2022/04/21 13:03:08;;;;;;;5.10;2.78;;;;;;;18.78;31.36;100892.78;10437722;28;20083;-81
2022/04/21 13:08:08;;;;;;;9.18;5.53;;;;;;;20.12;30.16;100890.84;10434659;28;20384;-81
2022/04/21 13:13:09;;;;;;;4.80;3.38;;;;;;;20.90;27.99;100865.66;10433701;28;20116;-82
2022/04/21 13:18:10;;;;;;;6.57;3.22;;;;;;;21.71;28.58;100864.22;10419235;28;20120;-80
2022/04/21 13:23:10;;;;;;;6.00;3.90;;;;;;;19.73;30.28;100861.22;10417130;28;20033;-79
2022/04/21 13:28:11;;;;;;;10.05;3.72;;;;;;;20.67;30.56;100855.75;10393949;28;20065;-80
2022/04/21 13:33:23;;;;;;;15.05;4.10;;;;;;;21.10;31.00;100848.03;10394943;28;20859;-80
2022/04/21 13:38:24;;;;;;;6.00;3.47;;;;;;;21.60;29.13;100845.50;10381264;28;20515;-79
2022/04/21 13:43:26;;;;;;;8.10;4.65;;;;;;;21.32;29.90;100833.91;10411876;28;20057;-79
2022/04/21 13:48:26;;;;;;;9.18;3.58;;;;;;;21.94;31.51;100837.56;10394907;28;20059;-79
2022/04/21 13:53:27;;;;;;;8.30;3.97;;;;;;;22.71;29.86;100825.94;10412951;28;20115;-80
2022/04/21 13:58:27;;;;;;;6.55;4.57;;;;;;;22.91;29.00;100821.41;10411776;28;20531;-80
2022/04/21 14:03:28;;;;;;;15.27;4.45;;;;;;;23.49;29.06;100806.00;10411690;28;20080;-78
2022/04/21 14:08:29;;;;;;;9.13;4.70;;;;;;;21.26;31.02;100811.72;10395049;28;20049;-78
2022/04/21 14:13:29;;;;;;;6.88;3.72;;;;;;;21.69;30.79;100802.06;10394612;28;20500;-78
2022/04/21 14:18:30;;;;;;;8.90;4.88;;;;;;;22.34;33.22;100787.78;10393428;28;20025;-77
2022/04/21 14:23:35;;;;;;;9.48;4.80;;;;;;;22.95;30.03;100783.16;10377686;28;20432;-78
2022/04/21 14:28:38;;;;;;;6.18;3.92;;;;;;;22.60;29.42;100785.09;10394899;28;20488;-77
2022/04/21 14:33:39;;;;;;;5.45;2.85;;;;;;;21.95;31.65;100778.06;10414764;28;20028;-77
2022/04/21 14:44:04;;;;;;;4.60;2.05;;;;;;;22.61;30.98;100767.28;10447210;28;20029;-78
2022/04/21 14:49:07;;;;;;;4.15;2.75;;;;;;;21.27;32.59;100764.69;10431127;28;20549;-78
2022/04/21 14:54:08;;;;;;;6.13;2.63;;;;;;;21.94;33.16;100762.09;10410170;28;20033;-78
2022/04/21 14:59:12;;;;;;;4.93;3.08;;;;;;;20.97;34.10;100769.97;10387936;28;20512;-78
2022/04/21 15:04:12;;;;;;;4.43;2.38;;;;;;;20.39;33.99;100778.53;10393202;28;20084;-76
2022/04/21 15:09:12;;;;;;;5.35;3.03;;;;;;;19.91;34.43;100773.78;10428972;28;20453;-77
2022/04/21 15:14:13;;;;;;;7.80;3.88;;;;;;;19.33;37.10;100769.69;10452602;28;20036;-79
2022/04/21 15:19:16;;;;;;;10.85;5.88;;;;;;;18.44;37.75;100772.16;10458741;28;20033;-80
2022/04/21 15:24:16;;;;;;;8.50;4.28;;;;;;;17.53;38.45;100777.78;10456963;28;20366;-80
2022/04/21 15:29:18;;;;;;;5.53;3.47;;;;;;;16.81;41.14;100771.97;10424950;28;20079;-79
2022/04/21 15:34:19;;;;;;;6.90;2.88;;;;;;;16.70;41.86;100763.84;10439726;28;20036;-77
2022/04/21 15:39:19;;;;;;;8.80;3.25;;;;;;;17.95;39.60;100761.69;10415465;28;20080;-77
2022/04/21 15:44:20;;;;;;;5.60;2.85;;;;;;;18.19;40.35;100756.81;10434846;28;20476;-77
2022/04/21 15:49:20;;;;;;;6.75;2.85;;;;;;;17.70;41.77;100751.63;10457398;28;20029;-79
2022/04/21 15:59:40;;;;;;;5.43;2.30;;;;;;;16.67;43.12;100746.16;10457832;28;20033;-79
2022/04/21 16:04:41;;;;;;;5.93;2.58;;;;;;;16.20;44.67;100751.31;10451316;28;20077;-81
2022/04/21 16:09:43;;;;;;;7.20;3.80;;;;;;;15.98;44.16;100745.53;10453345;28;20040;-82
2022/04/21 16:14:43;;;;;;;10.13;3.70;;;;;;;15.92;45.60;100756.84;10414231;28;20033;-84
2022/04/21 16:19:44;;;;;;;12.32;3.95;;;;;;;15.92;45.23;100748.03;10402821;28;20037;-79
2022/04/21 16:24:45;;;;;;;6.82;4.35;;;;;;;15.88;44.88;100749.72;10438122;28;20484;-77
2022/04/21 16:29:45;;;;;;;12.25;5.03;;;;;;;15.87;44.94;100745.28;10438198;28;20036;-78
2022/04/21 16:34:46;;;;;;;9.88;5.03;;;;;;;15.89;46.18;100742.66;10454962;28;20098;-77
2022/04/21 16:39:47;;;;;;;8.32;4.72;;;;;;;15.87;47.79;100747.94;10456076;28;20078;-77
2022/04/21 16:44:47;;;;;;;9.90;5.85;;;;;;;15.64;46.96;100748.22;10431020;28;20027;-78
2022/04/21 16:49:48;;;;;;;9.48;5.40;;;;;;;15.52;46.50;100735.59;10436332;28;20029;-79
2022/04/21 16:54:48;;;;;;;8.93;5.10;;;;;;;15.26;47.72;100735.81;10453868;28;20558;-78
2022/04/21 16:59:49;;;;;;;8.82;5.88;;;;;;;15.10;49.12;100738.91;10430855;28;20061;-77
2022/04/21 17:04:49;;;;;;;8.40;5.22;;;;;;;15.03;48.73;100744.84;10454073;28;20053;-77
2022/04/21 17:09:50;;;;;;;9.63;5.53;;;;;;;14.94;48.19;100751.66;10434553;28;20160;-77
2022/04/21 17:14:51;;;;;;;8.07;5.20;;;;;;;14.82;48.37;100760.13;10434183;28;20076;-80
2022/04/21 17:19:51;;;;;;;18.38;5.68;;;;;;;14.68;48.55;100748.25;10399567;28;20096;-77
2022/04/21 17:24:52;;;;;;;9.57;5.28;;;;;;;14.51;48.38;100748.66;10425094;28;20061;-78
2022/04/21 17:29:52;;;;;;;10.55;6.13;;;;;;;14.37;50.00;100757.91;10425862;28;20127;-79
2022/04/21 17:34:53;;;;;;;9.13;5.07;;;;;;;14.34;49.58;100756.03;10428082;28;20021;-78
2022/04/21 17:39:56;;;;;;;6.97;4.22;;;;;;;14.30;50.00;100759.44;10425696;28;20037;-77
2022/04/21 17:44:58;;;;;;;9.05;3.88;;;;;;;14.22;50.42;100756.56;10428889;28;20074;-77
2022/04/21 17:49:59;;;;;;;7.78;3.42;;;;;;;14.27;49.41;100754.06;10429283;28;20503;-77
2022/04/21 17:54:59;;;;;;;8.55;4.50;;;;;;;14.23;49.82;100760.09;10450139;28;20115;-77
2022/04/21 18:00:00;;;;;;;12.93;4.70;;;;;;;14.12;50.17;100770.28;10405286;28;20155;-76
2022/04/21 18:05:01;;;;;;;10.60;3.75;;;;;;;14.04;50.09;100766.53;10433336;28;20040;-76
2022/04/21 18:10:01;;;;;;;7.13;3.25;;;;;;;13.98;49.91;100767.22;10443964;28;20211;-81
2022/04/21 18:15:02;;;;;;;7.55;3.38;;;;;;;13.90;50.04;100773.97;10440594;28;20029;-77
2022/04/21 18:20:03;;;;;;;8.45;3.25;;;;;;;13.82;50.40;100763.19;10436780;28;20041;-77
2022/04/21 18:25:06;;;;;;;9.07;3.77;;;;;;;13.78;49.95;100759.56;10430619;28;20017;-76
2022/04/21 18:30:07;;;;;;;8.35;3.75;;;;;;;13.73;50.28;100763.78;10412824;28;20036;-76
2022/04/21 18:35:09;;;;;;;13.15;4.70;;;;;;;13.67;50.47;100758.31;10432136;28;20049;-77
2022/04/21 18:40:10;;;;;;;8.27;3.93;;;;;;;13.61;50.46;100758.09;10407423;28;20043;-79
2022/04/21 18:45:10;;;;;;;13.15;4.07;;;;;;;13.49;51.29;100764.75;10387348;28;20034;-80
2022/04/21 18:50:11;;;;;;;6.60;3.67;;;;;;;13.40;50.68;100758.25;10394298;28;20033;-80
2022/04/21 18:55:12;;;;;;;7.35;3.75;;;;;;;13.38;51.11;100762.56;10436356;28;20052;-77
2022/04/21 19:00:15;;;;;;;6.63;3.83;;;;;;;13.46;50.30;100755.88;10441223;28;20084;-77
2022/04/21 19:05:16;;;;;;;9.45;4.95;;;;;;;13.43;50.78;100753.13;10426702;28;20076;-77
2022/04/21 19:10:26;;;;;;;9.37;3.80;;;;;;;13.43;50.74;100753.13;10441593;28;20036;-77
2022/04/21 19:15:27;;;;;;;10.52;3.85;;;;;;;13.27;52.29;100749.03;10438024;28;20048;-77
2022/04/21 19:20:27;;;;;;;16.10;5.90;;;;;;;13.30;51.83;100744.78;10416473;28;20537;-77
2022/04/21 19:25:29;;;;;;;10.90;5.32;;;;;;;13.21;52.10;100740.09;10439442;28;20053;-77
2022/04/21 19:30:29;;;;;;;16.15;5.03;;;;;;;13.19;52.14;100747.03;10441784;28;20115;-76
2022/04/21 19:35:33;;;;;;;9.35;4.05;;;;;;;13.17;52.18;100750.47;10440468;28;20052;-77
2022/04/21 19:40:33;;;;;;;6.25;3.10;;;;;;;13.03;51.33;100743.00;10458109;28;20045;-77
2022/04/21 19:45:34;;;;;;;6.70;3.15;;;;;;;12.95;51.90;100751.41;10456281;28;20063;-77
2022/04/21 19:50:34;;;;;;;7.50;3.30;;;;;;;12.85;52.26;100737.06;10457767;28;20033;-78
2022/04/21 19:55:35;;;;;;;8.48;3.67;;;;;;;12.81;52.39;100750.94;10439101;28;20025;-77
2022/04/21 20:00:35;;;;;;;10.23;4.50;;;;;;;12.75;53.34;100741.09;10436154;28;20507;-76
2022/04/21 20:10:55;;;;;;;6.68;3.20;;;;;;;12.65;54.14;100738.97;10452125;28;20033;-76
2022/04/21 20:15:56;;;;;;;8.63;3.60;;;;;;;12.58;53.46;100754.47;10454451;28;20120;-75
2022/04/21 20:31:35;;;;;;;5.93;2.88;;;;;;;12.41;53.95;100735.47;10441548;28;20029;-74
2022/04/21 20:36:36;;;;;;;8.52;3.90;;;;;;;12.41;53.35;100731.94;10438396;28;20028;-75
2022/04/21 20:41:37;;;;;;;9.18;3.95;;;;;;;12.16;54.36;100736.25;10438582;28;20033;-75
2022/04/21 20:46:37;;;;;;;6.25;3.25;;;;;;;12.01;55.28;100733.94;10455032;28;20072;-75
2022/04/21 20:51:37;;;;;;;7.85;2.63;;;;;;;11.66;56.42;100723.75;10438080;28;20025;-75
2022/04/21 20:56:38;;;;;;;7.55;3.80;;;;;;;11.30;57.69;100729.25;10437112;28;20068;-74
2022/04/21 21:01:39;;;;;;;7.03;3.03;;;;;;;11.01;59.20;100735.06;10456203;28;20037;-75
2022/04/21 21:11:58;;;;;;;8.25;3.72;;;;;;;10.57;60.15;100734.84;10440528;28;20049;-74
2022/04/21 21:16:59;;;;;;;8.98;4.32;;;;;;;10.49;60.01;100735.34;10435774;28;20060;-74
2022/04/21 21:22:01;;;;;;;8.48;3.65;;;;;;;10.25;61.25;100729.00;10437477;28;20384;-74
2022/04/21 21:27:01;;;;;;;5.85;3.72;;;;;;;10.14;60.99;100723.28;10453270;28;20032;-74
2022/04/21 21:32:02;;;;;;;8.05;4.15;;;;;;;10.02;61.28;100735.78;10436775;28;20561;-74
2022/04/21 21:37:03;;;;;;;6.35;3.00;;;;;;;9.84;62.48;100728.84;10408911;28;20481;-74
2022/04/21 21:42:04;;;;;;;9.05;3.80;;;;;;;9.67;63.00;100724.50;10434548;28;20110;-74
2022/04/21 21:47:04;;;;;;;6.40;3.97;;;;;;;9.47;63.42;100720.88;10407336;28;20033;-74
2022/04/21 21:57:24;;;;;;;5.88;4.90;;;;;;;9.17;64.33;100716.81;10404127;28;20033;-76
2022/04/21 22:02:25;;;;;;;6.10;3.67;;;;;;;8.98;64.92;100721.91;10450377;28;20065;-76
2022/04/21 22:07:25;;;;;;;8.45;3.60;;;;;;;8.83;66.10;100722.91;10441342;28;20052;-76
2022/04/21 22:12:26;;;;;;;7.53;4.70;;;;;;;8.77;66.15;100723.47;10416728;28;20033;-73
2022/04/21 22:17:26;;;;;;;13.95;4.68;;;;;;;8.72;66.95;100718.84;10441918;28;20396;-75
2022/04/21 22:22:27;;;;;;;10.75;4.80;;;;;;;8.70;66.28;100712.66;10442383;28;20404;-76
2022/04/21 22:27:27;;;;;;;7.07;5.20;;;;;;;8.58;67.88;100711.19;10462241;28;20029;-73
2022/04/21 22:32:28;;;;;;;9.80;6.95;;;;;;;8.53;67.71;100717.88;10448445;28;20072;-76
2022/04/21 22:37:28;;;;;;;6.95;4.75;;;;;;;8.46;67.43;100718.31;10451245;28;20060;-76
2022/04/21 22:42:29;;;;;;;9.30;4.22;;;;;;;8.55;68.08;100715.31;10458499;28;20453;-76
2022/04/21 22:47:29;;;;;;;7.70;4.78;;;;;;;8.43;68.69;100706.00;10440201;28;20064;-76
2022/04/21 22:52:30;;;;;;;9.95;5.28;;;;;;;8.41;68.65;100707.63;10435516;28;20036;-76
2022/04/21 22:57:30;;;;;;;12.40;5.85;;;;;;;8.41;68.83;100709.34;10430628;28;20033;-76
2022/04/21 23:02:31;;;;;;;7.43;5.55;;;;;;;8.42;68.71;100716.38;10430527;28;20040;-76
2022/04/21 23:07:31;;;;;;;8.82;5.82;;;;;;;8.28;69.86;100710.38;10439624;28;20044;-76
2022/04/21 23:17:51;;;;;;;12.82;7.50;;;;;;;8.02;71.34;100704.63;10426859;28;20128;-76
2022/04/21 23:22:53;;;;;;;13.65;7.47;;;;;;;7.91;71.27;100697.13;10430610;28;20124;-76
2022/04/21 23:27:54;;;;;;;12.65;7.85;;;;;;;7.92;71.84;100701.53;10435622;28;20048;-76
2022/04/21 23:32:54;;;;;;;12.45;7.82;;;;;;;7.87;72.28;100696.88;10451118;28;20029;-76
2022/04/21 23:43:16;;;;;;;14.57;7.38;;;;;;;8.06;72.29;100689.28;10425509;28;20388;-76
2022/04/21 23:48:16;;;;;;;14.90;10.05;;;;;;;7.94;72.73;100689.47;10412279;28;20033;-76
2022/04/21 23:53:17;;;;;;;13.65;7.45;;;;;;;7.72;73.18;100690.00;10430509;28;20069;-76
2022/04/21 23:58:17;;;;;;;15.13;9.15;;;;;;;7.67;73.70;100680.13;10458521;28;20369;-76
